sensor_id;sensor_type;location;lat;lon;timestamp;pressure;altitude;pressure_sealevel;temperature;humidity
43488;BME280;29078;41.932;25.554;2023-03-04T00:01:40;99608.88;;;5.68;67.74
43488;BME280;29078;41.932;25.554;2023-03-04T00:04:05;99670.28;;;6.21;67.64
43488;BME280;29078;41.932;25.554;2023-03-04T00:06:31;99511.22;;;5.21;68.09
43488;BME280;29078;41.932;25.554;2023-03-04T00:08:56;99664.34;;;6.01;68.07
43488;BME280;29078;41.932;25.554;2023-03-04T00:11:22;99614.53;;;5.64;68.32
43488;BME280;29078;41.932;25.554;2023-03-04T00:13:47;99632.09;;;5.81;68.08
43488;BME280;29078;41.932;25.554;2023-03-04T00:16:13;99595.41;;;5.54;68.04
43488;BME280;29078;41.932;25.554;2023-03-04T00:18:38;99572.72;;;5.45;67.59
43488;BME280;29078;41.932;25.554;2023-03-04T00:21:04;99670.16;;;5.95;68.05
43488;BME280;29078;41.932;25.554;2023-03-04T00:23:30;99678.41;;;6.00;67.31
43488;BME280;29078;41.932;25.554;2023-03-04T00:25:55;99666.00;;;5.92;67.54
43488;BME280;29078;41.932;25.554;2023-03-04T00:28:20;99604.09;;;5.54;67.65
43488;BME280;29078;41.932;25.554;2023-03-04T00:30:46;99689.88;;;5.99;67.53
43488;BME280;29078;41.932;25.554;2023-03-04T00:33:11;99526.25;;;5.09;67.34
43488;BME280;29078;41.932;25.554;2023-03-04T00:35:37;99681.19;;;5.79;67.40
43488;BME280;29078;41.932;25.554;2023-03-04T00:38:02;99697.31;;;5.94;67.77
43488;BME280;29078;41.932;25.554;2023-03-04T00:40:27;99583.81;;;5.29;67.17
43488;BME280;29078;41.932;25.554;2023-03-04T00:42:53;99465.84;;;4.66;67.52
43488;BME280;29078;41.932;25.554;2023-03-04T00:45:18;99692.78;;;5.96;67.47
43488;BME280;29078;41.932;25.554;2023-03-04T00:47:44;99615.22;;;5.29;67.49
43488;BME280;29078;41.932;25.554;2023-03-04T00:50:09;99597.19;;;5.26;67.58
43488;BME280;29078;41.932;25.554;2023-03-04T00:52:35;99702.97;;;5.99;67.58
43488;BME280;29078;41.932;25.554;2023-03-04T00:55:00;99660.28;;;5.69;67.44
43488;BME280;29078;41.932;25.554;2023-03-04T00:57:26;99676.28;;;5.66;67.51
43488;BME280;29078;41.932;25.554;2023-03-04T00:59:51;99639.84;;;5.36;67.61
43488;BME280;29078;41.932;25.554;2023-03-04T01:02:17;99556.34;;;4.96;67.41
43488;BME280;29078;41.932;25.554;2023-03-04T01:04:42;99586.13;;;5.32;67.65
43488;BME280;29078;41.932;25.554;2023-03-04T01:07:08;99597.28;;;5.34;67.40
43488;BME280;29078;41.932;25.554;2023-03-04T01:09:33;99718.28;;;5.84;67.32
43488;BME280;29078;41.932;25.554;2023-03-04T01:11:59;99465.47;;;4.51;67.12
43488;BME280;29078;41.932;25.554;2023-03-04T01:14:24;99709.28;;;6.06;67.22
43488;BME280;29078;41.932;25.554;2023-03-04T01:16:50;99659.31;;;5.70;67.44
43488;BME280;29078;41.932;25.554;2023-03-04T01:19:16;99607.06;;;5.32;67.05
43488;BME280;29078;41.932;25.554;2023-03-04T01:21:41;99682.03;;;5.80;67.40
43488;BME280;29078;41.932;25.554;2023-03-04T01:24:07;99699.75;;;6.05;67.23
43488;BME280;29078;41.932;25.554;2023-03-04T01:26:32;99612.97;;;5.43;67.23
43488;BME280;29078;41.932;25.554;2023-03-04T01:28:58;99642.63;;;5.71;67.34
43488;BME280;29078;41.932;25.554;2023-03-04T01:31:23;99549.19;;;4.88;67.04
43488;BME280;29078;41.932;25.554;2023-03-04T01:33:49;99672.78;;;5.95;67.34
43488;BME280;29078;41.932;25.554;2023-03-04T01:36:14;99603.59;;;5.41;67.16
43488;BME280;29078;41.932;25.554;2023-03-04T01:38:39;99654.47;;;5.75;67.57
43488;BME280;29078;41.932;25.554;2023-03-04T01:41:05;99620.63;;;5.55;67.53
43488;BME280;29078;41.932;25.554;2023-03-04T01:43:31;99591.66;;;5.29;67.38
43488;BME280;29078;41.932;25.554;2023-03-04T01:45:59;99619.78;;;5.64;67.60
43488;BME280;29078;41.932;25.554;2023-03-04T01:48:36;99686.38;;;6.08;67.49
43488;BME280;29078;41.932;25.554;2023-03-04T01:51:11;99678.22;;;6.11;67.00
43488;BME280;29078;41.932;25.554;2023-03-04T01:53:38;99597.59;;;5.58;67.29
43488;BME280;29078;41.932;25.554;2023-03-04T01:56:34;99687.34;;;6.07;67.62
43488;BME280;29078;41.932;25.554;2023-03-04T01:59:08;99697.97;;;6.05;67.25
43488;BME280;29078;41.932;25.554;2023-03-04T02:01:34;99687.19;;;6.09;67.53
43488;BME280;29078;41.932;25.554;2023-03-04T02:04:00;99594.34;;;5.47;67.22
43488;BME280;29078;41.932;25.554;2023-03-04T02:06:26;99541.53;;;5.14;67.56
43488;BME280;29078;41.932;25.554;2023-03-04T02:08:51;99418.97;;;4.35;67.20
43488;BME280;29078;41.932;25.554;2023-03-04T02:11:16;99662.72;;;5.81;67.87
43488;BME280;29078;41.932;25.554;2023-03-04T02:13:42;99560.38;;;5.27;67.80
43488;BME280;29078;41.932;25.554;2023-03-04T02:16:08;99650.78;;;5.68;67.98
43488;BME280;29078;41.932;25.554;2023-03-04T02:18:33;99657.47;;;5.81;68.24
43488;BME280;29078;41.932;25.554;2023-03-04T02:26:20;99682.84;;;5.90;68.06
43488;BME280;29078;41.932;25.554;2023-03-04T02:28:48;99655.44;;;5.74;67.92
43488;BME280;29078;41.932;25.554;2023-03-04T02:33:53;99595.03;;;5.49;67.88
43488;BME280;29078;41.932;25.554;2023-03-04T02:36:19;99597.47;;;5.60;67.76
43488;BME280;29078;41.932;25.554;2023-03-04T02:38:45;99659.47;;;6.06;68.26
43488;BME280;29078;41.932;25.554;2023-03-04T02:41:13;99559.00;;;5.33;67.79
43488;BME280;29078;41.932;25.554;2023-03-04T02:43:40;99528.16;;;5.17;67.74
43488;BME280;29078;41.932;25.554;2023-03-04T02:46:06;99639.94;;;5.91;68.32
43488;BME280;29078;41.932;25.554;2023-03-04T02:48:31;99536.53;;;5.30;67.99
43488;BME280;29078;41.932;25.554;2023-03-04T02:50:56;99499.53;;;5.16;67.97
43488;BME280;29078;41.932;25.554;2023-03-04T02:53:22;99470.91;;;5.04;67.77
43488;BME280;29078;41.932;25.554;2023-03-04T02:55:49;99565.34;;;5.58;68.14
43488;BME280;29078;41.932;25.554;2023-03-04T02:58:15;99656.31;;;6.02;68.07
43488;BME280;29078;41.932;25.554;2023-03-04T03:00:40;99571.59;;;5.47;67.79
43488;BME280;29078;41.932;25.554;2023-03-04T03:03:06;99479.72;;;4.76;68.03
43488;BME280;29078;41.932;25.554;2023-03-04T03:05:33;99625.28;;;5.61;68.28
43488;BME280;29078;41.932;25.554;2023-03-04T03:07:59;99538.41;;;5.01;67.78
43488;BME280;29078;41.932;25.554;2023-03-04T03:10:25;99667.22;;;5.88;68.33
43488;BME280;29078;41.932;25.554;2023-03-04T03:12:51;99668.75;;;5.91;68.27
43488;BME280;29078;41.932;25.554;2023-03-04T03:15:17;99583.34;;;5.43;68.04
43488;BME280;29078;41.932;25.554;2023-03-04T03:17:42;99543.06;;;5.07;67.86
43488;BME280;29078;41.932;25.554;2023-03-04T03:20:09;99625.78;;;5.74;67.57
43488;BME280;29078;41.932;25.554;2023-03-04T03:22:35;99677.28;;;6.02;67.62
43488;BME280;29078;41.932;25.554;2023-03-04T03:25:01;99636.94;;;5.76;67.62
43488;BME280;29078;41.932;25.554;2023-03-04T03:27:26;99682.97;;;5.98;67.64
43488;BME280;29078;41.932;25.554;2023-03-04T03:29:52;99595.56;;;5.52;67.51
43488;BME280;29078;41.932;25.554;2023-03-04T03:32:17;99575.47;;;5.43;67.99
43488;BME280;29078;41.932;25.554;2023-03-04T03:34:42;99558.84;;;5.34;67.96
43488;BME280;29078;41.932;25.554;2023-03-04T03:37:08;99527.06;;;5.20;67.43
43488;BME280;29078;41.932;25.554;2023-03-04T03:39:33;99504.00;;;4.96;67.80
43488;BME280;29078;41.932;25.554;2023-03-04T03:41:59;99541.25;;;5.27;67.90
43488;BME280;29078;41.932;25.554;2023-03-04T03:44:24;99645.72;;;5.85;67.82
43488;BME280;29078;41.932;25.554;2023-03-04T03:46:49;99653.31;;;5.88;67.57
43488;BME280;29078;41.932;25.554;2023-03-04T03:49:15;99561.41;;;5.44;67.81
43488;BME280;29078;41.932;25.554;2023-03-04T03:51:41;99562.53;;;5.41;68.01
43488;BME280;29078;41.932;25.554;2023-03-04T03:54:07;99654.13;;;5.88;67.72
43488;BME280;29078;41.932;25.554;2023-03-04T03:56:32;99569.22;;;5.26;67.89
43488;BME280;29078;41.932;25.554;2023-03-04T03:58:58;99687.50;;;5.86;68.15
43488;BME280;29078;41.932;25.554;2023-03-04T04:01:24;99647.13;;;5.79;67.93
43488;BME280;29078;41.932;25.554;2023-03-04T04:03:49;99645.53;;;5.68;68.55
43488;BME280;29078;41.932;25.554;2023-03-04T04:06:15;99663.28;;;5.74;68.73
43488;BME280;29078;41.932;25.554;2023-03-04T04:08:40;99647.47;;;5.66;68.24
43488;BME280;29078;41.932;25.554;2023-03-04T04:11:08;99544.28;;;5.13;68.31
43488;BME280;29078;41.932;25.554;2023-03-04T04:13:34;99616.22;;;5.55;68.13
43488;BME280;29078;41.932;25.554;2023-03-04T04:15:59;99518.78;;;4.77;68.47
43488;BME280;29078;41.932;25.554;2023-03-04T04:18:25;99620.00;;;5.43;68.60
43488;BME280;29078;41.932;25.554;2023-03-04T04:20:51;99596.06;;;5.28;68.44
43488;BME280;29078;41.932;25.554;2023-03-04T04:23:16;99679.50;;;5.88;68.40
43488;BME280;29078;41.932;25.554;2023-03-04T04:25:42;99632.22;;;5.52;68.23
43488;BME280;29078;41.932;25.554;2023-03-04T04:28:07;99562.81;;;4.92;68.04
43488;BME280;29078;41.932;25.554;2023-03-04T04:30:33;99651.19;;;5.64;68.48
43488;BME280;29078;41.932;25.554;2023-03-04T04:32:58;99654.38;;;5.67;68.52
43488;BME280;29078;41.932;25.554;2023-03-04T04:35:26;99677.91;;;5.77;68.20
43488;BME280;29078;41.932;25.554;2023-03-04T04:37:52;99585.75;;;5.17;68.49
43488;BME280;29078;41.932;25.554;2023-03-04T04:40:18;99589.63;;;5.23;68.34
43488;BME280;29078;41.932;25.554;2023-03-04T04:42:43;99634.84;;;5.52;68.09
43488;BME280;29078;41.932;25.554;2023-03-04T04:45:09;99682.31;;;5.77;68.59
43488;BME280;29078;41.932;25.554;2023-03-04T04:47:35;99678.03;;;5.75;67.92
43488;BME280;29078;41.932;25.554;2023-03-04T04:50:01;99673.28;;;5.61;68.44
43488;BME280;29078;41.932;25.554;2023-03-04T04:52:26;99628.31;;;5.29;68.33
43488;BME280;29078;41.932;25.554;2023-03-04T04:54:52;99633.66;;;5.37;68.34
43488;BME280;29078;41.932;25.554;2023-03-04T04:57:17;99635.88;;;5.32;68.45
43488;BME280;29078;41.932;25.554;2023-03-04T04:59:42;99628.03;;;5.32;68.26
43488;BME280;29078;41.932;25.554;2023-03-04T05:02:08;99549.88;;;4.90;68.29
43488;BME280;29078;41.932;25.554;2023-03-04T05:04:33;99617.13;;;5.36;68.22
43488;BME280;29078;41.932;25.554;2023-03-04T05:06:59;99672.81;;;5.75;68.33
43488;BME280;29078;41.932;25.554;2023-03-04T05:09:24;99683.44;;;5.74;68.31
43488;BME280;29078;41.932;25.554;2023-03-04T05:11:49;99691.13;;;5.75;68.21
43488;BME280;29078;41.932;25.554;2023-03-04T05:14:15;99673.22;;;5.71;67.50
43488;BME280;29078;41.932;25.554;2023-03-04T05:16:40;99553.19;;;4.92;67.89
43488;BME280;29078;41.932;25.554;2023-03-04T05:19:06;99492.56;;;4.50;67.86
43488;BME280;29078;41.932;25.554;2023-03-04T05:21:31;99615.78;;;5.23;68.24
43488;BME280;29078;41.932;25.554;2023-03-04T05:23:56;99611.78;;;5.19;68.47
43488;BME280;29078;41.932;25.554;2023-03-04T05:26:22;99678.63;;;5.69;67.79
43488;BME280;29078;41.932;25.554;2023-03-04T05:28:47;99602.28;;;5.18;67.55
43488;BME280;29078;41.932;25.554;2023-03-04T05:31:13;99553.16;;;5.02;67.96
43488;BME280;29078;41.932;25.554;2023-03-04T05:33:39;99667.16;;;5.70;68.14
43488;BME280;29078;41.932;25.554;2023-03-04T05:36:05;99523.19;;;4.77;67.93
43488;BME280;29078;41.932;25.554;2023-03-04T05:38:31;99688.28;;;5.69;68.20
43488;BME280;29078;41.932;25.554;2023-03-04T05:40:59;99597.88;;;5.28;67.77
43488;BME280;29078;41.932;25.554;2023-03-04T05:43:26;99642.69;;;5.52;67.98
43488;BME280;29078;41.932;25.554;2023-03-04T05:45:53;99626.91;;;5.34;68.07
43488;BME280;29078;41.932;25.554;2023-03-04T05:48:18;99681.06;;;5.81;68.17
43488;BME280;29078;41.932;25.554;2023-03-04T05:50:44;99622.38;;;5.27;67.83
43488;BME280;29078;41.932;25.554;2023-03-04T05:53:09;99631.97;;;5.46;67.77
43488;BME280;29078;41.932;25.554;2023-03-04T05:55:35;99654.69;;;5.55;68.04
43488;BME280;29078;41.932;25.554;2023-03-04T05:58:00;99611.06;;;5.36;67.80
43488;BME280;29078;41.932;25.554;2023-03-04T06:00:26;99691.66;;;5.98;67.90
43488;BME280;29078;41.932;25.554;2023-03-04T06:02:52;99713.00;;;6.03;68.39
43488;BME280;29078;41.932;25.554;2023-03-04T06:05:17;99690.00;;;5.97;67.77
43488;BME280;29078;41.932;25.554;2023-03-04T06:07:44;99631.25;;;5.53;67.62
43488;BME280;29078;41.932;25.554;2023-03-04T06:10:11;99712.69;;;6.16;67.79
43488;BME280;29078;41.932;25.554;2023-03-04T06:12:37;99626.47;;;5.76;67.91
43488;BME280;29078;41.932;25.554;2023-03-04T06:15:03;99717.47;;;6.21;67.98
43488;BME280;29078;41.932;25.554;2023-03-04T06:17:30;99697.72;;;6.26;67.38
43488;BME280;29078;41.932;25.554;2023-03-04T06:19:56;99612.50;;;5.58;67.54
43488;BME280;29078;41.932;25.554;2023-03-04T06:22:21;99422.38;;;4.45;67.34
43488;BME280;29078;41.932;25.554;2023-03-04T06:24:47;99654.69;;;5.92;67.92
43488;BME280;29078;41.932;25.554;2023-03-04T06:27:12;99685.69;;;6.06;67.63
43488;BME280;29078;41.932;25.554;2023-03-04T06:29:38;99693.50;;;6.16;67.56
43488;BME280;29078;41.932;25.554;2023-03-04T06:32:04;99631.84;;;5.74;68.03
43488;BME280;29078;41.932;25.554;2023-03-04T06:34:29;99589.16;;;5.64;67.62
43488;BME280;29078;41.932;25.554;2023-03-04T06:36:55;99520.31;;;5.17;67.33
43488;BME280;29078;41.932;25.554;2023-03-04T06:39:20;99637.19;;;5.92;67.80
43488;BME280;29078;41.932;25.554;2023-03-04T06:41:46;99640.47;;;5.94;67.73
43488;BME280;29078;41.932;25.554;2023-03-04T06:44:11;99715.63;;;6.31;67.79
43488;BME280;29078;41.932;25.554;2023-03-04T06:46:37;99640.19;;;5.88;67.95
43488;BME280;29078;41.932;25.554;2023-03-04T06:49:02;99684.53;;;6.18;67.94
43488;BME280;29078;41.932;25.554;2023-03-04T06:51:28;99651.63;;;6.06;68.13
43488;BME280;29078;41.932;25.554;2023-03-04T06:53:54;99549.69;;;5.48;68.25
43488;BME280;29078;41.932;25.554;2023-03-04T06:56:20;99734.19;;;6.65;67.71
43488;BME280;29078;41.932;25.554;2023-03-04T06:58:45;99616.06;;;5.94;67.56
43488;BME280;29078;41.932;25.554;2023-03-04T07:01:16;99691.44;;;6.37;67.58
43488;BME280;29078;41.932;25.554;2023-03-04T07:03:41;99692.50;;;6.44;67.65
43488;BME280;29078;41.932;25.554;2023-03-04T07:06:09;99674.97;;;6.45;67.71
43488;BME280;29078;41.932;25.554;2023-03-04T07:08:35;99743.25;;;6.80;67.79
43488;BME280;29078;41.932;25.554;2023-03-04T07:11:01;99641.47;;;6.38;68.12
43488;BME280;29078;41.932;25.554;2023-03-04T07:13:26;99637.13;;;6.29;67.62
43488;BME280;29078;41.932;25.554;2023-03-04T07:15:52;99604.75;;;6.21;67.77
43488;BME280;29078;41.932;25.554;2023-03-04T07:18:17;99646.19;;;6.53;67.59
43488;BME280;29078;41.932;25.554;2023-03-04T07:20:43;99688.59;;;6.76;68.01
43488;BME280;29078;41.932;25.554;2023-03-04T07:23:08;99595.75;;;6.23;67.79
43488;BME280;29078;41.932;25.554;2023-03-04T07:25:34;99682.50;;;6.75;67.55
43488;BME280;29078;41.932;25.554;2023-03-04T07:27:59;99605.88;;;6.36;67.41
43488;BME280;29078;41.932;25.554;2023-03-04T07:30:25;99597.19;;;6.35;68.26
43488;BME280;29078;41.932;25.554;2023-03-04T07:32:50;99657.78;;;6.78;68.04
43488;BME280;29078;41.932;25.554;2023-03-04T07:35:16;99573.66;;;6.44;67.51
43488;BME280;29078;41.932;25.554;2023-03-04T07:37:41;99652.66;;;6.94;67.54
43488;BME280;29078;41.932;25.554;2023-03-04T07:40:08;99723.63;;;7.46;68.14
43488;BME280;29078;41.932;25.554;2023-03-04T07:42:33;99652.03;;;7.00;67.94
43488;BME280;29078;41.932;25.554;2023-03-04T07:44:59;99571.69;;;6.63;67.72
43488;BME280;29078;41.932;25.554;2023-03-04T07:47:26;99707.47;;;7.58;67.85
43488;BME280;29078;41.932;25.554;2023-03-04T07:49:51;99678.75;;;7.39;68.19
43488;BME280;29078;41.932;25.554;2023-03-04T07:52:20;99632.50;;;7.20;67.73
43488;BME280;29078;41.932;25.554;2023-03-04T07:54:46;99616.31;;;7.07;67.70
43488;BME280;29078;41.932;25.554;2023-03-04T07:57:11;99630.38;;;7.24;68.10
43488;BME280;29078;41.932;25.554;2023-03-04T07:59:36;99648.47;;;7.53;68.02
43488;BME280;29078;41.932;25.554;2023-03-04T08:02:02;99624.94;;;7.43;67.82
43488;BME280;29078;41.932;25.554;2023-03-04T08:04:27;99616.09;;;7.44;67.83
43488;BME280;29078;41.932;25.554;2023-03-04T08:06:53;99686.72;;;7.81;67.36
43488;BME280;29078;41.932;25.554;2023-03-04T08:09:18;99596.72;;;7.45;67.27
43488;BME280;29078;41.932;25.554;2023-03-04T08:11:43;99637.47;;;7.83;67.52
43488;BME280;29078;41.932;25.554;2023-03-04T08:14:11;99613.94;;;7.74;67.28
43488;BME280;29078;41.932;25.554;2023-03-04T08:16:37;99717.81;;;8.54;67.41
43488;BME280;29078;41.932;25.554;2023-03-04T08:19:03;99719.78;;;8.60;66.95
43488;BME280;29078;41.932;25.554;2023-03-04T08:21:29;99643.31;;;8.11;66.87
43488;BME280;29078;41.932;25.554;2023-03-04T08:23:57;99720.78;;;8.67;67.11
43488;BME280;29078;41.932;25.554;2023-03-04T08:26:29;99660.19;;;8.35;66.86
43488;BME280;29078;41.932;25.554;2023-03-04T08:28:56;99724.13;;;8.85;66.91
43488;BME280;29078;41.932;25.554;2023-03-04T08:31:22;99732.38;;;8.99;66.74
43488;BME280;29078;41.932;25.554;2023-03-04T08:33:47;99625.69;;;8.46;66.83
43488;BME280;29078;41.932;25.554;2023-03-04T08:36:14;99673.78;;;8.97;66.17
43488;BME280;29078;41.932;25.554;2023-03-04T08:38:40;99725.47;;;9.54;65.69
43488;BME280;29078;41.932;25.554;2023-03-04T08:41:05;99655.16;;;9.31;65.75
43488;BME280;29078;41.932;25.554;2023-03-04T08:43:31;99618.28;;;9.22;65.11
43488;BME280;29078;41.932;25.554;2023-03-04T08:45:57;99719.63;;;9.92;64.83
43488;BME280;29078;41.932;25.554;2023-03-04T08:48:23;99709.88;;;10.00;64.59
43488;BME280;29078;41.932;25.554;2023-03-04T08:50:49;99712.97;;;10.12;64.49
43488;BME280;29078;41.932;25.554;2023-03-04T08:53:15;99530.53;;;9.22;64.12
43488;BME280;29078;41.932;25.554;2023-03-04T08:55:42;99703.69;;;10.32;64.46
43488;BME280;29078;41.932;25.554;2023-03-04T08:58:08;99717.84;;;10.39;63.73
43488;BME280;29078;41.932;25.554;2023-03-04T09:00:36;99703.50;;;10.42;63.92
43488;BME280;29078;41.932;25.554;2023-03-04T09:03:03;99691.66;;;10.30;63.72
43488;BME280;29078;41.932;25.554;2023-03-04T09:05:29;99685.03;;;10.42;63.44
43488;BME280;29078;41.932;25.554;2023-03-04T09:07:55;99642.03;;;10.25;63.18
43488;BME280;29078;41.932;25.554;2023-03-04T09:10:20;99574.28;;;9.86;63.06
43488;BME280;29078;41.932;25.554;2023-03-04T09:12:46;99676.28;;;10.41;63.29
43488;BME280;29078;41.932;25.554;2023-03-04T09:15:12;99685.44;;;10.54;62.78
43488;BME280;29078;41.932;25.554;2023-03-04T09:17:38;99523.53;;;9.45;63.32
43488;BME280;29078;41.932;25.554;2023-03-04T09:20:05;99620.00;;;10.10;63.11
43488;BME280;29078;41.932;25.554;2023-03-04T09:22:32;99652.72;;;10.32;63.58
43488;BME280;29078;41.932;25.554;2023-03-04T09:24:58;99658.44;;;10.43;62.65
43488;BME280;29078;41.932;25.554;2023-03-04T09:27:23;99678.53;;;10.75;62.16
43488;BME280;29078;41.932;25.554;2023-03-04T09:29:49;99622.38;;;10.59;62.33
43488;BME280;29078;41.932;25.554;2023-03-04T09:32:14;99490.50;;;9.97;62.36
43488;BME280;29078;41.932;25.554;2023-03-04T09:34:40;99642.53;;;11.20;61.81
43488;BME280;29078;41.932;25.554;2023-03-04T09:37:05;99511.31;;;10.60;61.51
43488;BME280;29078;41.932;25.554;2023-03-04T09:39:31;99539.13;;;10.86;61.08
43488;BME280;29078;41.932;25.554;2023-03-04T09:41:57;99591.69;;;11.18;60.53
43488;BME280;29078;41.932;25.554;2023-03-04T09:44:35;99614.66;;;11.18;60.53
43488;BME280;29078;41.932;25.554;2023-03-04T09:47:09;99641.38;;;11.37;59.75
43488;BME280;29078;41.932;25.554;2023-03-04T09:49:37;99644.09;;;11.29;60.89
43488;BME280;29078;41.932;25.554;2023-03-04T09:54:59;99631.69;;;11.15;60.37
43488;BME280;29078;41.932;25.554;2023-03-04T10:00:42;99626.63;;;11.05;60.34
43488;BME280;29078;41.932;25.554;2023-03-04T10:11:20;99616.50;;;11.61;59.38
43488;BME280;29078;41.932;25.554;2023-03-04T10:13:59;99613.59;;;11.86;58.68
43488;BME280;29078;41.932;25.554;2023-03-04T10:16:35;99581.00;;;11.70;58.07
43488;BME280;29078;41.932;25.554;2023-03-04T10:19:23;99607.47;;;11.85;57.39
43488;BME280;29078;41.932;25.554;2023-03-04T10:21:51;99623.28;;;11.93;57.45
43488;BME280;29078;41.932;25.554;2023-03-04T10:24:19;99592.06;;;11.89;57.53
43488;BME280;29078;41.932;25.554;2023-03-04T10:26:51;99582.03;;;11.84;57.82
43488;BME280;29078;41.932;25.554;2023-03-04T10:29:20;99530.78;;;11.56;57.88
43488;BME280;29078;41.932;25.554;2023-03-04T10:31:46;99597.88;;;12.14;57.23
43488;BME280;29078;41.932;25.554;2023-03-04T10:34:15;99489.91;;;11.73;57.11
43488;BME280;29078;41.932;25.554;2023-03-04T10:37:01;99515.88;;;11.99;56.75
43488;BME280;29078;41.932;25.554;2023-03-04T10:39:31;99470.59;;;11.58;56.29
43488;BME280;29078;41.932;25.554;2023-03-04T10:44:28;99569.00;;;12.19;56.63
43488;BME280;29078;41.932;25.554;2023-03-04T10:46:56;99567.13;;;12.13;56.71
43488;BME280;29078;41.932;25.554;2023-03-04T10:49:22;99495.03;;;11.60;56.83
43488;BME280;29078;41.932;25.554;2023-03-04T10:54:47;99559.16;;;11.91;56.62
43488;BME280;29078;41.932;25.554;2023-03-04T10:57:16;99467.38;;;11.26;57.45
43488;BME280;29078;41.932;25.554;2023-03-04T11:02:32;99556.03;;;11.88;57.82
43488;BME280;29078;41.932;25.554;2023-03-04T11:12:51;99511.63;;;11.68;59.24
43488;BME280;29078;41.932;25.554;2023-03-04T11:15:21;99429.84;;;11.01;59.56
43488;BME280;29078;41.932;25.554;2023-03-04T11:17:54;99433.22;;;10.95;60.41
43488;BME280;29078;41.932;25.554;2023-03-04T11:20:28;99419.19;;;10.95;60.49
43488;BME280;29078;41.932;25.554;2023-03-04T11:22:56;99508.28;;;11.30;60.65
43488;BME280;29078;41.932;25.554;2023-03-04T11:25:27;99461.63;;;11.08;60.83
43488;BME280;29078;41.932;25.554;2023-03-04T11:27:57;99505.00;;;11.43;60.67
43488;BME280;29078;41.932;25.554;2023-03-04T11:30:40;99491.53;;;11.38;61.18
43488;BME280;29078;41.932;25.554;2023-03-04T11:33:56;99500.69;;;11.57;61.56
43488;BME280;29078;41.932;25.554;2023-03-04T11:39:51;99487.13;;;12.38;61.02
43488;BME280;29078;41.932;25.554;2023-03-04T11:45:04;99439.22;;;12.61;58.75
43488;BME280;29078;41.932;25.554;2023-03-04T11:51:00;99474.84;;;13.15;58.34
43488;BME280;29078;41.932;25.554;2023-03-04T11:56:19;99478.63;;;12.99;57.81
43488;BME280;29078;41.932;25.554;2023-03-04T12:04:56;99419.47;;;12.92;57.09
43488;BME280;29078;41.932;25.554;2023-03-04T12:07:45;99414.56;;;12.89;57.08
43488;BME280;29078;41.932;25.554;2023-03-04T12:16:15;99427.19;;;13.28;56.61
43488;BME280;29078;41.932;25.554;2023-03-04T12:29:06;99440.47;;;13.34;56.01
43488;BME280;29078;41.932;25.554;2023-03-04T12:31:40;99430.28;;;13.31;55.84
43488;BME280;29078;41.932;25.554;2023-03-04T12:34:13;99437.22;;;13.32;55.54
43488;BME280;29078;41.932;25.554;2023-03-04T12:36:59;99432.94;;;13.31;55.66
43488;BME280;29078;41.932;25.554;2023-03-04T12:39:34;99440.22;;;13.23;55.16
43488;BME280;29078;41.932;25.554;2023-03-04T12:44:57;99341.72;;;12.37;55.49
43488;BME280;29078;41.932;25.554;2023-03-04T12:55:39;99310.78;;;12.44;55.71
43488;BME280;29078;41.932;25.554;2023-03-04T12:58:14;99335.47;;;12.51;55.45
43488;BME280;29078;41.932;25.554;2023-03-04T13:03:32;99412.59;;;13.04;55.65
43488;BME280;29078;41.932;25.554;2023-03-04T13:19:41;99394.94;;;12.77;56.00
43488;BME280;29078;41.932;25.554;2023-03-04T13:35:48;99371.75;;;12.85;55.89
43488;BME280;29078;41.932;25.554;2023-03-04T13:38:31;99370.91;;;12.85;55.63
43488;BME280;29078;41.932;25.554;2023-03-04T14:02:23;99347.81;;;12.65;55.83
43488;BME280;29078;41.932;25.554;2023-03-04T14:07:23;99286.66;;;12.26;56.01
43488;BME280;29078;41.932;25.554;2023-03-04T14:09:57;99313.03;;;12.47;56.13
43488;BME280;29078;41.932;25.554;2023-03-04T14:12:24;99244.63;;;12.09;56.28
43488;BME280;29078;41.932;25.554;2023-03-04T14:14:52;99336.94;;;12.60;56.35
43488;BME280;29078;41.932;25.554;2023-03-04T14:17:38;99227.56;;;11.84;57.06
43488;BME280;29078;41.932;25.554;2023-03-04T14:20:22;99310.47;;;12.26;57.29
43488;BME280;29078;41.932;25.554;2023-03-04T14:22:48;99242.19;;;11.80;57.29
43488;BME280;29078;41.932;25.554;2023-03-04T14:27:39;99092.50;;;10.74;58.21
43488;BME280;29078;41.932;25.554;2023-03-04T14:30:12;99330.25;;;12.30;58.91
43488;BME280;29078;41.932;25.554;2023-03-04T14:32:44;99306.88;;;12.05;59.06
43488;BME280;29078;41.932;25.554;2023-03-04T14:35:24;99269.28;;;11.89;59.34
43488;BME280;29078;41.932;25.554;2023-03-04T14:38:01;99324.69;;;12.18;59.89
43488;BME280;29078;41.932;25.554;2023-03-04T14:40:30;99316.31;;;12.15;60.22
43488;BME280;29078;41.932;25.554;2023-03-04T14:43:03;99138.19;;;10.96;60.10
43488;BME280;29078;41.932;25.554;2023-03-04T14:45:29;99317.09;;;12.08;60.29
43488;BME280;29078;41.932;25.554;2023-03-04T14:48:04;99222.00;;;11.51;60.69
43488;BME280;29078;41.932;25.554;2023-03-04T14:50:30;99286.00;;;11.89;60.53
43488;BME280;29078;41.932;25.554;2023-03-04T14:55:33;99278.94;;;11.75;61.01
43488;BME280;29078;41.932;25.554;2023-03-04T14:58:21;99257.91;;;11.39;61.42
43488;BME280;29078;41.932;25.554;2023-03-04T15:00:47;99314.97;;;11.97;61.65
43488;BME280;29078;41.932;25.554;2023-03-04T15:03:24;99245.22;;;11.56;61.18
43488;BME280;29078;41.932;25.554;2023-03-04T15:05:52;99212.66;;;11.27;60.99
43488;BME280;29078;41.932;25.554;2023-03-04T15:10:53;99305.91;;;11.85;61.60
43488;BME280;29078;41.932;25.554;2023-03-04T15:13:36;99302.25;;;11.86;62.06
43488;BME280;29078;41.932;25.554;2023-03-04T15:16:02;99263.84;;;11.69;61.39
43488;BME280;29078;41.932;25.554;2023-03-04T15:18:28;99302.88;;;11.88;61.65
43488;BME280;29078;41.932;25.554;2023-03-04T15:23:45;99197.03;;;11.11;62.05
43488;BME280;29078;41.932;25.554;2023-03-04T15:26:12;99195.84;;;11.13;61.75
43488;BME280;29078;41.932;25.554;2023-03-04T15:28:39;99265.50;;;11.49;62.28